KGEV

Ashe County Airport

Jefferson, North Carolina, USA
METAR KGEV 200655Z AUTO 16006KT 10SM OVC010 12/11 A3038 RMK AO2 T01220110
Observed Flight Rules
Feb-20 @ 06:55 UTC (26 minutes ago) Marginal Visual Flight Rules
Wind Visibility Clouds
160° at 6 knots 10 miles
  • Overcast at 1,000' AGL
Temperatures Readings
Current 12°C / 54°F
Dewpoint 11°C / 52°F
Humidity 94%
Altimeter 30.38" Hg
Pressure 1029 hPa
Elevation 969
METAR KGEV 200655Z AUTO 16006KT 10SM OVC010 12/11 A3038 RMK AO2 T01220110
Observed Flight Rules
Feb-20 @ 06:55 UTC
(26 minutes ago)
MVFR
Wind Visibility
160° at 6 knots 10 miles
Clouds
  • Overcast at 1,000' AGL
Temperature Dewpoint
12°C / 54°F 11°C / 52°F
Humidity Altimeter Pressure
94% 30.38" Hg 1029 hPa